Time;durP1;ratioP1;P1;durP2;ratioP2;P2;SDS_P1;SDS_P2;PMS_P1;PMS_P2;Temp;Humidity;BMP_temperature;BMP_pressure;BME280_temperature;BME280_humidity;BME280_pressure;Samples;Min_cycle;Max_cycle;Signal;HPM_P1;HPM_P2
2021/12/06 00:01:31;;;;;;;68.60;34.03;;;;;;;2.46;83.36;96537.61;1750782;81;21032;-82
2021/12/06 00:04:12;;;;;;;72.30;36.28;;;;;;;2.46;83.47;96536.30;1747359;81;21521;-82
2021/12/06 00:06:43;;;;;;;74.32;37.10;;;;;;;2.41;82.58;96533.77;1757594;80;21028;-81
2021/12/06 00:09:15;;;;;;;76.20;39.63;;;;;;;2.39;83.05;96529.03;1746730;81;21005;-80
2021/12/06 00:11:42;;;;;;;78.22;37.78;;;;;;;2.35;83.18;96532.16;1744555;81;21044;-80
2021/12/06 00:14:09;;;;;;;74.30;37.95;;;;;;;2.36;83.42;96533.87;1744349;82;21026;-81
2021/12/06 00:16:37;;;;;;;76.40;37.50;;;;;;;2.40;83.73;96538.59;1742917;82;21056;-81
2021/12/06 00:19:06;;;;;;;82.35;39.35;;;;;;;2.42;83.62;96544.67;1756985;80;21382;-81
2021/12/06 00:21:33;;;;;;;76.07;38.65;;;;;;;2.38;83.25;96543.84;1756259;80;21036;-82
2021/12/06 00:24:02;;;;;;;76.70;39.35;;;;;;;2.35;83.30;96524.75;1750857;81;21614;-81
2021/12/06 00:26:28;;;;;;;74.53;38.55;;;;;;;2.33;83.11;96524.78;1749892;80;21508;-81
2021/12/06 00:28:58;;;;;;;73.07;36.93;;;;;;;2.31;82.96;96519.16;1757708;80;21020;-81
2021/12/06 00:31:33;;;;;;;82.62;39.10;;;;;;;2.28;82.97;96521.86;1788243;80;21080;-81
2021/12/06 00:34:09;;;;;;;75.12;38.02;;;;;;;2.25;82.87;96517.56;1788146;80;20992;-81
2021/12/06 00:36:40;;;;;;;73.62;38.25;;;;;;;2.19;82.86;96513.30;1788660;80;21036;-81
2021/12/06 00:39:11;;;;;;;79.40;38.75;;;;;;;2.15;83.04;96513.41;1781356;80;21434;-81
2021/12/06 00:41:40;;;;;;;76.12;37.90;;;;;;;2.13;83.04;96504.29;1762265;80;21099;-81
2021/12/06 00:44:07;;;;;;;74.42;37.35;;;;;;;2.14;82.95;96514.28;1788897;80;21415;-81
2021/12/06 00:46:37;;;;;;;72.35;35.92;;;;;;;2.10;83.05;96506.95;1788559;80;20965;-81
2021/12/06 00:49:08;;;;;;;75.32;37.48;;;;;;;2.08;82.84;96512.20;1788534;80;21394;-81
2021/12/06 00:51:36;;;;;;;72.95;37.28;;;;;;;2.06;82.98;96513.13;1788068;80;21521;-81
2021/12/06 00:54:09;;;;;;;76.50;36.93;;;;;;;2.02;83.14;96515.38;1774221;80;21382;-81
2021/12/06 00:56:38;;;;;;;78.85;38.92;;;;;;;1.96;82.88;96516.38;1757750;81;21064;-82
2021/12/06 00:59:07;;;;;;;79.00;38.53;;;;;;;1.92;82.76;96512.97;1757064;82;21008;-81
2021/12/06 01:01:35;;;;;;;75.72;37.40;;;;;;;1.88;82.97;96515.65;1759672;80;21059;-81
2021/12/06 01:04:04;;;;;;;76.25;36.98;;;;;;;1.88;83.47;96515.65;1788457;80;21035;-81
2021/12/06 01:06:31;;;;;;;75.45;37.55;;;;;;;1.88;83.44;96508.69;1788348;80;21075;-81
2021/12/06 01:08:59;;;;;;;74.00;36.75;;;;;;;1.85;83.70;96517.87;1788595;80;20985;-81
2021/12/06 01:11:25;;;;;;;75.32;37.15;;;;;;;1.85;83.35;96523.10;1787741;80;21063;-81
2021/12/06 01:13:53;;;;;;;79.80;39.48;;;;;;;1.87;83.27;96532.22;1757278;82;20988;-81
2021/12/06 01:16:21;;;;;;;79.03;37.42;;;;;;;1.89;83.17;96516.06;1757403;82;21505;-81
2021/12/06 01:18:50;;;;;;;75.08;38.00;;;;;;;1.87;83.16;96517.39;1727817;82;20985;-81
2021/12/06 01:21:25;;;;;;;75.35;37.67;;;;;;;1.88;83.36;96510.42;1777114;80;21020;-81
2021/12/06 01:23:56;;;;;;;81.92;38.50;;;;;;;1.87;83.95;96503.48;1787110;80;21158;-81
2021/12/06 01:29:08;;;;;;;83.75;39.50;;;;;;;1.90;83.33;96502.09;1783708;80;21414;-81
2021/12/06 01:31:42;;;;;;;79.92;38.05;;;;;;;1.88;83.22;96496.93;1782070;80;21062;-81
2021/12/06 01:39:44;;;;;;;74.03;36.98;;;;;;;1.94;83.45;96486.78;1717082;81;21454;-81
2021/12/06 01:42:11;;;;;;;84.80;39.15;;;;;;;1.95;83.32;96488.07;1713338;84;21477;-81
2021/12/06 01:44:42;;;;;;;81.55;38.95;;;;;;;1.97;83.41;96483.69;1713596;84;21446;-81
2021/12/06 01:47:22;;;;;;;82.70;39.67;;;;;;;2.00;83.32;96486.69;1713201;80;20997;-81
2021/12/06 01:50:04;;;;;;;83.47;39.65;;;;;;;2.01;83.13;96491.02;1717063;81;20988;-81
2021/12/06 01:52:37;;;;;;;90.30;41.77;;;;;;;2.01;83.05;96481.00;1779664;80;21013;-81
2021/12/06 01:55:09;;;;;;;87.05;42.43;;;;;;;1.98;83.20;96481.92;1780005;81;21419;-82
2021/12/06 01:57:37;;;;;;;87.88;40.92;;;;;;;1.97;83.35;96478.89;1780115;81;21034;-81
2021/12/06 02:00:15;;;;;;;86.45;40.70;;;;;;;1.92;83.63;96480.31;1780198;81;21383;-81
2021/12/06 02:02:45;;;;;;;77.72;38.67;;;;;;;1.89;83.38;96476.88;1754705;80;21012;-81
2021/12/06 02:05:16;;;;;;;82.60;41.65;;;;;;;1.92;83.34;96476.39;1712784;83;21036;-81
2021/12/06 02:07:44;;;;;;;89.15;43.60;;;;;;;1.96;83.49;96479.33;1713472;84;21445;-81
2021/12/06 02:10:10;;;;;;;88.42;42.10;;;;;;;2.00;83.55;96478.84;1713733;81;21501;-80
2021/12/06 02:12:38;;;;;;;87.55;41.68;;;;;;;2.04;83.64;96473.11;1719557;83;21024;-81
2021/12/06 02:15:30;;;;;;;78.40;41.00;;;;;;;2.07;83.94;96482.17;1685070;85;20978;-81
2021/12/06 02:17:52;;;;;;;85.87;42.00;;;;;;;2.09;84.01;96482.59;1717065;83;21032;-80
2021/12/06 02:20:24;;;;;;;86.57;40.43;;;;;;;2.11;84.12;96467.72;1707700;84;21549;-80
2021/12/06 02:22:47;;;;;;;84.75;41.75;;;;;;;2.13;84.13;96468.13;1776433;81;21052;-81
2021/12/06 02:25:18;;;;;;;89.03;42.55;;;;;;;2.11;84.47;96467.72;1780006;81;21051;-82
2021/12/06 02:27:51;;;;;;;82.53;41.95;;;;;;;2.20;85.14;96471.05;1779522;81;21073;-82
2021/12/06 02:30:22;;;;;;;81.08;41.20;;;;;;;2.30;85.28;96463.86;1766386;81;20974;-81
2021/12/06 02:32:51;;;;;;;81.97;40.65;;;;;;;2.34;85.17;96466.83;1743132;82;21002;-82
2021/12/06 02:35:22;;;;;;;80.25;41.10;;;;;;;2.34;85.11;96464.21;1722254;82;20970;-81
2021/12/06 02:37:56;;;;;;;90.05;43.78;;;;;;;2.34;85.30;96457.23;1743171;82;21023;-81
2021/12/06 02:40:27;;;;;;;84.00;43.40;;;;;;;2.31;84.84;96459.91;1747514;82;21028;-81
2021/12/06 02:42:55;;;;;;;81.50;41.50;;;;;;;2.28;84.92;96460.42;1727975;82;21028;-80
2021/12/06 02:45:26;;;;;;;83.17;43.05;;;;;;;2.23;84.78;96452.23;1749003;82;21049;-81
2021/12/06 02:47:57;;;;;;;84.55;42.00;;;;;;;2.20;84.64;96443.14;1744865;81;21032;-80
2021/12/06 02:50:30;;;;;;;88.45;42.80;;;;;;;2.16;84.83;96453.23;1713283;83;21466;-80
2021/12/06 02:52:57;;;;;;;88.47;44.05;;;;;;;2.12;84.95;96442.46;1713441;84;21017;-80
2021/12/06 02:57:59;;;;;;;85.25;43.48;;;;;;;2.10;84.95;96441.61;1738275;81;21051;-81
2021/12/06 03:00:27;;;;;;;85.57;42.43;;;;;;;2.06;85.03;96438.21;1779545;80;21015;-80
2021/12/06 03:02:54;;;;;;;90.17;42.83;;;;;;;2.06;85.07;96441.26;1780035;80;20993;-80
2021/12/06 03:05:21;;;;;;;87.33;41.48;;;;;;;2.02;85.34;96437.86;1779954;81;21060;-80
2021/12/06 03:07:52;;;;;;;82.12;41.23;;;;;;;1.98;85.49;96430.53;1780111;81;20980;-80
2021/12/06 03:10:18;;;;;;;83.65;41.73;;;;;;;1.95;85.45;96431.89;1753220;80;21004;-80
2021/12/06 03:12:45;;;;;;;84.17;40.90;;;;;;;1.96;85.97;96431.45;1713875;81;20961;-80
2021/12/06 03:15:11;;;;;;;92.53;41.68;;;;;;;1.95;85.37;96431.05;1713478;83;21020;-80
2021/12/06 03:17:40;;;;;;;85.00;42.17;;;;;;;1.96;85.65;96437.52;1713553;84;20973;-80
2021/12/06 03:20:13;;;;;;;89.25;43.50;;;;;;;1.90;85.09;96437.66;1713315;84;21032;-80
2021/12/06 03:22:37;;;;;;;90.07;43.40;;;;;;;1.86;85.33;96439.91;1724993;82;21051;-80
2021/12/06 03:25:09;;;;;;;90.32;43.90;;;;;;;1.86;85.34;96445.60;1728604;82;21109;-80
2021/12/06 03:27:36;;;;;;;84.60;43.80;;;;;;;1.88;85.56;96445.11;1728007;82;21052;-79
2021/12/06 03:30:07;;;;;;;92.12;44.10;;;;;;;1.88;85.39;96442.50;1751735;81;21081;-80
2021/12/06 03:32:34;;;;;;;81.05;40.20;;;;;;;1.87;85.37;96441.63;1780058;80;21048;-80
2021/12/06 03:35:03;;;;;;;81.82;40.88;;;;;;;1.88;85.69;96440.77;1779925;81;20961;-80
2021/12/06 03:37:31;;;;;;;82.08;38.73;;;;;;;1.86;86.38;96442.52;1780194;81;21025;-80
2021/12/06 03:40:00;;;;;;;79.58;39.80;;;;;;;1.85;86.23;96451.26;1776986;81;21030;-80
2021/12/06 03:42:28;;;;;;;73.78;37.53;;;;;;;1.82;86.87;96450.88;1725416;82;21012;-80
2021/12/06 03:44:58;;;;;;;73.55;37.55;;;;;;;1.82;86.27;96438.25;1749294;82;21024;-80
2021/12/06 03:47:29;;;;;;;76.65;38.40;;;;;;;1.82;86.14;96444.34;1749147;82;21044;-81
2021/12/06 03:49:59;;;;;;;72.30;36.48;;;;;;;1.84;86.15;96436.02;1753182;82;21044;-80
2021/12/06 03:52:30;;;;;;;75.32;35.90;;;;;;;1.88;87.02;96437.27;1738977;81;20989;-80
2021/12/06 03:54:59;;;;;;;76.30;36.50;;;;;;;1.91;86.73;96443.76;1713271;84;20996;-80
2021/12/06 03:57:28;;;;;;;71.28;35.33;;;;;;;1.96;86.82;96444.06;1713474;84;21402;-80
2021/12/06 03:59:55;;;;;;;66.72;35.25;;;;;;;1.99;87.24;96439.21;1713528;84;21028;-81
2021/12/06 04:02:26;;;;;;;64.77;32.85;;;;;;;2.05;87.03;96438.23;1713305;84;21064;-80
2021/12/06 04:04:55;;;;;;;64.30;34.00;;;;;;;2.05;86.81;96438.23;1729612;82;20969;-80
2021/12/06 04:07:23;;;;;;;66.72;34.60;;;;;;;2.07;87.03;96441.66;1713451;83;21019;-80
2021/12/06 04:09:50;;;;;;;61.30;33.15;;;;;;;2.13;87.60;96440.25;1749253;82;21012;-80
2021/12/06 04:12:18;;;;;;;65.78;34.23;;;;;;;2.20;87.55;96445.75;1713546;83;21011;-80
2021/12/06 04:14:47;;;;;;;65.78;33.58;;;;;;;2.22;88.67;96450.95;1749345;82;21002;-80
2021/12/06 04:17:14;;;;;;;70.08;36.15;;;;;;;2.23;88.26;96455.28;1766443;81;20941;-81
2021/12/06 04:19:43;;;;;;;76.67;38.45;;;;;;;2.24;87.66;96459.17;1780190;81;21407;-81
2021/12/06 04:22:12;;;;;;;72.67;36.05;;;;;;;2.22;87.87;96463.59;1779920;81;20989;-81
2021/12/06 04:24:40;;;;;;;74.00;36.75;;;;;;;2.26;88.37;96462.20;1766690;81;21025;-81
2021/12/06 04:27:14;;;;;;;81.90;39.05;;;;;;;2.21;87.58;96464.45;1713731;84;21040;-81
2021/12/06 04:29:36;;;;;;;87.53;42.88;;;;;;;2.14;88.06;96460.70;1746585;81;20974;-81
2021/12/06 04:32:03;;;;;;;78.78;40.15;;;;;;;2.10;87.62;96467.75;1764933;81;21070;-81
2021/12/06 04:34:30;;;;;;;85.35;41.40;;;;;;;2.05;87.79;96472.20;1763098;81;21024;-82
2021/12/06 04:36:56;;;;;;;81.75;41.73;;;;;;;2.02;87.41;96473.13;1749396;82;21371;-81
2021/12/06 04:39:24;;;;;;;88.47;43.70;;;;;;;1.95;87.36;96468.47;1724936;82;21436;-82
2021/12/06 04:41:51;;;;;;;83.95;40.17;;;;;;;1.90;87.72;96457.25;1741624;82;21437;-82
2021/12/06 04:44:19;;;;;;;78.57;40.25;;;;;;;1.88;87.58;96460.78;1749309;82;21073;-81
2021/12/06 04:46:47;;;;;;;80.50;41.77;;;;;;;1.86;88.23;96457.36;1752420;81;21031;-81
2021/12/06 04:49:18;;;;;;;76.12;40.58;;;;;;;1.84;88.18;96462.61;1780392;81;21044;-83
2021/12/06 04:51:49;;;;;;;81.47;40.75;;;;;;;1.83;88.14;96459.59;1780261;81;20981;-82
2021/12/06 04:54:21;;;;;;;73.45;39.10;;;;;;;1.83;88.13;96472.65;1780295;81;21093;-82
2021/12/06 04:56:53;;;;;;;79.47;39.20;;;;;;;1.83;88.00;96466.12;1780399;81;20969;-82
2021/12/06 04:59:37;;;;;;;74.90;38.58;;;;;;;1.82;87.70;96477.43;1768072;80;21445;-82
2021/12/06 05:02:16;;;;;;;78.85;40.20;;;;;;;1.81;87.79;96470.06;1749098;82;20988;-82
2021/12/06 05:04:47;;;;;;;81.70;38.58;;;;;;;1.79;87.71;96463.98;1719695;83;20989;-82
2021/12/06 05:07:20;;;;;;;76.10;39.60;;;;;;;1.80;87.95;96472.70;1719873;83;21549;-82
2021/12/06 05:09:49;;;;;;;79.15;40.00;;;;;;;1.81;88.44;96471.37;1719476;83;21032;-81
2021/12/06 05:12:22;;;;;;;77.00;38.88;;;;;;;1.81;88.53;96466.14;1725943;81;21391;-82
2021/12/06 05:14:50;;;;;;;83.07;39.42;;;;;;;1.83;89.09;96474.80;1749320;82;21089;-81
2021/12/06 05:17:17;;;;;;;83.80;39.00;;;;;;;1.83;90.00;96479.18;1749440;82;21021;-81
2021/12/06 05:19:44;;;;;;;75.52;37.75;;;;;;;1.80;90.96;96479.23;1749410;82;21051;-82
2021/12/06 05:22:11;;;;;;;75.32;39.83;;;;;;;1.81;89.75;96478.33;1749478;82;21080;-82
2021/12/06 05:24:40;;;;;;;75.28;39.70;;;;;;;1.84;88.83;96477.81;1772904;81;21020;-82
2021/12/06 05:27:07;;;;;;;80.67;39.55;;;;;;;1.86;88.87;96483.48;1780183;81;20953;-81
2021/12/06 05:29:35;;;;;;;77.15;37.55;;;;;;;1.89;88.84;96479.05;1780199;81;21001;-81
2021/12/06 05:32:04;;;;;;;75.00;37.40;;;;;;;1.89;89.22;96490.81;1753661;81;21020;-81
2021/12/06 05:34:38;;;;;;;75.92;36.85;;;;;;;1.87;89.97;96491.27;1713495;84;21020;-81
2021/12/06 05:37:14;;;;;;;76.28;38.55;;;;;;;1.88;90.08;96496.05;1713698;84;20970;-81
2021/12/06 05:39:41;;;;;;;76.07;38.08;;;;;;;1.90;89.89;96500.36;1713593;84;21461;-80
2021/12/06 05:42:11;;;;;;;76.37;37.75;;;;;;;1.97;89.95;96501.98;1741608;81;21399;-81
2021/12/06 05:44:40;;;;;;;73.87;37.20;;;;;;;2.04;90.48;96501.39;1780052;81;21048;-81
2021/12/06 05:47:07;;;;;;;71.57;36.30;;;;;;;2.06;90.61;96499.62;1780205;81;21391;-81
2021/12/06 05:49:37;;;;;;;73.37;37.55;;;;;;;2.11;90.39;96507.36;1779587;80;21485;-81
2021/12/06 05:52:05;;;;;;;73.17;37.42;;;;;;;2.17;89.95;96506.38;1780249;81;21028;-81
2021/12/06 05:54:34;;;;;;;69.90;36.53;;;;;;;2.20;89.79;96506.34;1778261;81;20961;-82
2021/12/06 05:57:01;;;;;;;76.17;39.20;;;;;;;2.21;89.62;96500.20;1780156;81;20997;-82
2021/12/06 05:59:28;;;;;;;77.17;38.17;;;;;;;2.24;90.30;96502.31;1780228;81;20981;-82
2021/12/06 06:01:56;;;;;;;81.80;40.95;;;;;;;2.28;90.16;96499.17;1750497;81;21017;-82
2021/12/06 06:04:26;;;;;;;81.05;40.85;;;;;;;2.29;89.65;96494.39;1743193;82;21001;-81
2021/12/06 06:06:58;;;;;;;80.60;39.35;;;;;;;2.28;89.76;96491.80;1723473;81;20961;-82
2021/12/06 06:09:24;;;;;;;78.75;40.23;;;;;;;2.29;89.96;96493.52;1713617;84;20976;-83
2021/12/06 06:11:52;;;;;;;74.77;40.50;;;;;;;2.29;89.53;96484.36;1731576;82;21426;-83
2021/12/06 06:14:22;;;;;;;78.22;40.38;;;;;;;2.26;89.37;96479.19;1736837;83;20981;-83
2021/12/06 06:16:54;;;;;;;78.67;39.03;;;;;;;2.24;89.77;96484.44;1749912;81;20969;-83
2021/12/06 06:19:22;;;;;;;76.45;40.33;;;;;;;2.21;89.69;96491.91;1724917;80;20981;-83
2021/12/06 06:21:51;;;;;;;76.65;40.85;;;;;;;2.16;89.14;96484.60;1735327;82;20977;-82
2021/12/06 06:24:18;;;;;;;77.90;39.48;;;;;;;2.13;89.25;96482.07;1743017;82;21446;-82
2021/12/06 06:26:44;;;;;;;82.53;41.65;;;;;;;2.15;89.49;96472.90;1743130;82;21012;-82
2021/12/06 06:29:13;;;;;;;77.10;40.52;;;;;;;2.14;89.99;96481.17;1743935;81;20982;-82
2021/12/06 06:31:42;;;;;;;78.90;41.40;;;;;;;2.13;89.58;96473.36;1731574;82;21028;-81
2021/12/06 06:34:11;;;;;;;84.35;41.42;;;;;;;2.10;89.33;96479.08;1748491;82;20973;-82
2021/12/06 06:36:38;;;;;;;80.62;42.00;;;;;;;2.09;89.40;96476.05;1748315;82;20974;-81
2021/12/06 06:39:09;;;;;;;84.20;40.90;;;;;;;2.09;90.32;96464.73;1753286;80;20976;-81
2021/12/06 06:41:37;;;;;;;82.95;42.73;;;;;;;2.08;89.94;96461.24;1753784;81;21112;-81
2021/12/06 06:44:06;;;;;;;78.80;42.30;;;;;;;2.10;90.08;96471.67;1748839;82;20997;-82
2021/12/06 06:46:33;;;;;;;81.10;42.25;;;;;;;2.05;94.66;96493.12;1748660;82;21024;-81
2021/12/06 06:49:00;;;;;;;85.03;45.20;;;;;;;2.01;94.61;96523.68;1730992;80;21027;-81
2021/12/06 06:51:28;;;;;;;72.08;37.50;;;;;;;2.04;91.71;96530.59;1721101;83;21015;-82
2021/12/06 06:53:55;;;;;;;69.50;35.35;;;;;;;2.03;92.81;96519.27;1741914;82;20977;-83
2021/12/06 06:56:24;;;;;;;68.22;33.20;;;;;;;2.04;92.80;96536.67;1748615;82;20989;-83
2021/12/06 06:58:52;;;;;;;71.82;36.35;;;;;;;2.09;91.80;96532.67;1748618;82;21028;-83
2021/12/06 07:01:19;;;;;;;69.85;35.25;;;;;;;2.14;91.66;96516.89;1753993;80;21423;-83
2021/12/06 07:03:53;;;;;;;71.05;36.10;;;;;;;2.14;91.15;96506.44;1749422;81;21017;-82
2021/12/06 07:06:20;;;;;;;67.10;34.50;;;;;;;2.17;90.82;96498.55;1748249;82;20997;-83
2021/12/06 07:08:47;;;;;;;68.97;36.42;;;;;;;2.20;91.65;96499.80;1748516;82;21085;-83
2021/12/06 07:11:14;;;;;;;70.25;37.93;;;;;;;2.21;91.41;96493.67;1748489;82;21000;-83
2021/12/06 07:13:42;;;;;;;75.03;38.45;;;;;;;2.23;91.53;96497.10;1749569;80;21075;-83
2021/12/06 07:16:10;;;;;;;70.20;37.20;;;;;;;2.24;91.10;96494.90;1746260;80;21013;-83
2021/12/06 07:18:38;;;;;;;73.28;38.00;;;;;;;2.25;90.75;96484.88;1720979;83;21433;-83
2021/12/06 07:21:05;;;;;;;78.55;37.78;;;;;;;2.29;90.67;96492.20;1721175;83;21027;-82
2021/12/06 07:23:38;;;;;;;73.92;38.40;;;;;;;2.31;91.05;96499.12;1736651;82;21398;-81
2021/12/06 07:26:02;;;;;;;76.25;40.00;;;;;;;2.33;91.37;96497.79;1747501;82;20978;-81
2021/12/06 07:28:29;;;;;;;69.95;35.10;;;;;;;2.34;91.52;96515.20;1754591;82;21000;-83
2021/12/06 07:30:55;;;;;;;76.00;39.15;;;;;;;2.34;91.51;96517.80;1754605;82;20972;-82
2021/12/06 07:33:23;;;;;;;91.78;48.90;;;;;;;2.37;90.78;96534.75;1750854;81;21028;-82
2021/12/06 07:35:49;;;;;;;70.30;38.13;;;;;;;2.44;90.58;96519.34;1767426;81;20976;-82
2021/12/06 07:38:17;;;;;;;72.32;37.08;;;;;;;2.43;91.45;96521.98;1780124;81;21419;-82
2021/12/06 07:40:44;;;;;;;69.40;36.03;;;;;;;2.42;91.34;96519.83;1780026;80;21371;-82
2021/12/06 07:43:10;;;;;;;62.65;33.18;;;;;;;2.46;91.01;96526.69;1766709;80;21052;-82
2021/12/06 07:45:37;;;;;;;67.78;35.63;;;;;;;2.50;90.89;96532.73;1713742;81;20957;-82
2021/12/06 07:48:06;;;;;;;64.75;35.52;;;;;;;2.53;90.92;96521.35;1713411;83;21013;-82
2021/12/06 07:50:33;;;;;;;67.17;34.33;;;;;;;2.60;91.12;96522.92;1713399;84;20989;-82
2021/12/06 07:53:00;;;;;;;66.80;36.58;;;;;;;2.68;90.98;96518.83;1671925;82;21008;-82
2021/12/06 07:55:31;;;;;;;63.02;34.25;;;;;;;2.75;91.18;96529.12;1780094;81;21013;-82
2021/12/06 07:58:01;;;;;;;66.75;35.75;;;;;;;2.81;91.08;96526.83;1759795;81;21499;-82
2021/12/06 08:00:30;;;;;;;65.35;35.05;;;;;;;2.88;91.10;96526.25;1685329;84;21039;-82
2021/12/06 08:03:01;;;;;;;66.47;36.50;;;;;;;2.87;90.59;96537.62;1681973;83;20983;-82
2021/12/06 08:05:30;;;;;;;68.60;36.45;;;;;;;2.89;90.87;96543.23;1686437;84;21029;-83
2021/12/06 08:08:13;;;;;;;74.53;36.80;;;;;;;2.94;90.54;96541.80;1666773;84;21002;-80
2021/12/06 08:10:45;;;;;;;64.58;34.92;;;;;;;2.95;90.31;96535.67;1693192;83;21356;-81
2021/12/06 08:13:16;;;;;;;62.48;34.40;;;;;;;2.97;90.40;96535.20;1685071;84;21021;-82
2021/12/06 08:15:44;;;;;;;67.37;34.95;;;;;;;3.00;90.25;96533.80;1685830;85;22121;-80
2021/12/06 08:18:13;;;;;;;59.33;32.23;;;;;;;3.02;90.13;96532.47;1685914;85;21017;-80
2021/12/06 08:20:41;;;;;;;59.08;34.18;;;;;;;3.03;89.76;96526.33;1687131;84;21076;-80
2021/12/06 08:23:08;;;;;;;60.80;33.30;;;;;;;3.02;89.69;96535.09;1684192;84;21014;-83
2021/12/06 08:25:36;;;;;;;59.50;32.55;;;;;;;3.00;89.48;96538.20;1683355;84;21023;-81
2021/12/06 08:28:04;;;;;;;59.90;33.45;;;;;;;2.98;89.27;96538.23;1676595;84;21010;-79
2021/12/06 08:30:33;;;;;;;60.55;32.65;;;;;;;2.96;89.18;96538.72;1698951;84;20973;-81
2021/12/06 08:33:04;;;;;;;61.35;32.38;;;;;;;2.95;89.47;96533.05;1709333;84;21073;-81
2021/12/06 08:35:33;;;;;;;61.88;33.92;;;;;;;2.98;89.50;96530.38;1700042;84;21064;-82
2021/12/06 08:38:03;;;;;;;63.20;35.35;;;;;;;2.98;90.69;96536.05;1666912;84;20998;-82
2021/12/06 08:40:30;;;;;;;66.02;35.43;;;;;;;2.98;89.77;96532.12;1661372;86;21079;-81
2021/12/06 08:42:57;;;;;;;62.93;34.35;;;;;;;2.95;91.99;96549.22;1707422;83;21068;-81
2021/12/06 08:45:26;;;;;;;64.05;35.73;;;;;;;2.97;89.88;96552.22;1737404;82;21277;-82
2021/12/06 08:47:54;;;;;;;70.15;35.75;;;;;;;2.96;90.42;96551.81;1727046;83;21007;-81
2021/12/06 08:50:24;;;;;;;61.73;34.92;;;;;;;2.99;90.38;96554.34;1735407;82;21040;-82
2021/12/06 08:52:54;;;;;;;64.45;35.20;;;;;;;3.02;90.22;96544.25;1729418;82;21119;-82
2021/12/06 08:55:23;;;;;;;66.10;35.08;;;;;;;3.06;90.37;96528.89;1720747;83;21055;-82
2021/12/06 08:57:50;;;;;;;65.15;35.35;;;;;;;3.09;91.69;96530.57;1728021;82;22164;-82
2021/12/06 09:00:22;;;;;;;63.95;37.05;;;;;;;3.12;91.22;96536.59;1734354;82;20965;-81
2021/12/06 09:02:51;;;;;;;63.92;36.05;;;;;;;3.15;90.47;96533.04;1737915;82;21000;-81
2021/12/06 09:05:19;;;;;;;71.70;37.67;;;;;;;3.15;89.94;96535.22;1740558;82;21068;-82
2021/12/06 09:07:48;;;;;;;69.10;38.92;;;;;;;3.18;90.08;96539.52;1744247;82;21001;-81
2021/12/06 09:10:15;;;;;;;64.62;36.10;;;;;;;3.24;90.08;96537.22;1748625;82;21410;-82
2021/12/06 09:12:45;;;;;;;63.45;36.48;;;;;;;3.23;90.28;96538.09;1756560;82;21005;-82
2021/12/06 09:15:17;;;;;;;66.92;36.98;;;;;;;3.19;90.55;96543.02;1737792;81;21080;-82
2021/12/06 09:17:45;;;;;;;70.83;38.25;;;;;;;3.20;90.39;96542.95;1733313;82;21035;-81
2021/12/06 09:20:14;;;;;;;66.00;36.53;;;;;;;3.27;90.19;96542.36;1737140;82;21421;-80
2021/12/06 09:22:43;;;;;;;63.23;35.58;;;;;;;3.29;89.97;96531.42;1703714;82;21063;-81
2021/12/06 09:25:11;;;;;;;62.60;37.65;;;;;;;3.30;90.28;96535.31;1731398;82;22116;-81
2021/12/06 09:27:39;;;;;;;67.47;37.20;;;;;;;3.32;90.35;96535.72;1733531;82;20981;-81
2021/12/06 09:30:11;;;;;;;68.60;36.60;;;;;;;3.35;90.63;96531.70;1730128;82;20993;-80
2021/12/06 09:32:41;;;;;;;64.17;36.38;;;;;;;3.39;90.03;96531.60;1740189;80;21398;-81
2021/12/06 09:35:12;;;;;;;60.38;35.17;;;;;;;3.43;89.95;96533.69;1757885;81;21041;-81
2021/12/06 09:37:39;;;;;;;63.40;36.23;;;;;;;3.45;89.86;96542.39;1754590;81;21073;-81
2021/12/06 09:40:10;;;;;;;61.37;34.75;;;;;;;3.50;89.84;96544.88;1758442;81;20977;-81
2021/12/06 09:42:37;;;;;;;60.58;34.58;;;;;;;3.53;89.74;96533.03;1753892;81;20986;-82
2021/12/06 09:45:08;;;;;;;63.52;36.58;;;;;;;3.54;91.16;96534.27;1756047;80;21382;-79
2021/12/06 09:47:37;;;;;;;68.25;35.75;;;;;;;3.52;90.41;96532.16;1743835;81;21033;-81
2021/12/06 09:50:06;;;;;;;65.37;35.98;;;;;;;3.57;90.11;96528.09;1739630;82;21072;-76
2021/12/06 09:52:33;;;;;;;63.58;36.42;;;;;;;3.60;90.03;96520.17;1737577;82;21474;-75
2021/12/06 09:55:00;;;;;;;61.25;35.23;;;;;;;3.64;89.99;96511.77;1750989;81;21000;-75
2021/12/06 09:57:27;;;;;;;65.62;35.38;;;;;;;3.67;90.02;96508.65;1779572;80;20993;-75
2021/12/06 09:59:55;;;;;;;60.15;34.58;;;;;;;3.73;89.78;96506.77;1747554;81;21009;-76
2021/12/06 10:02:22;;;;;;;61.55;33.38;;;;;;;3.78;89.59;96510.97;1719984;82;21488;-77
2021/12/06 10:04:55;;;;;;;59.42;32.75;;;;;;;3.80;90.16;96510.94;1713410;84;21460;-76
2021/12/06 10:07:23;;;;;;;58.68;33.08;;;;;;;3.83;90.24;96516.11;1715125;81;21530;-76
2021/12/06 10:09:51;;;;;;;61.70;32.88;;;;;;;3.89;90.24;96511.13;1713385;84;20989;-76
2021/12/06 10:12:21;;;;;;;57.78;32.73;;;;;;;3.94;89.97;96505.31;1713361;84;21009;-76
2021/12/06 10:14:55;;;;;;;59.13;32.38;;;;;;;4.00;89.83;96513.03;1745937;81;21497;-77
2021/12/06 10:17:21;;;;;;;52.55;30.45;;;;;;;4.05;89.86;96501.97;1772336;81;21017;-76
2021/12/06 10:19:52;;;;;;;52.05;31.95;;;;;;;4.13;89.90;96498.25;1761870;81;21032;-76
2021/12/06 10:22:21;;;;;;;56.83;30.37;;;;;;;4.20;90.29;96499.81;1775381;80;21006;-76
2021/12/06 10:24:55;;;;;;;51.40;30.43;;;;;;;4.23;90.59;96499.71;1777669;81;21013;-76
2021/12/06 10:27:24;;;;;;;49.25;29.70;;;;;;;4.29;90.25;96500.88;1779693;81;21418;-75
2021/12/06 10:30:02;;;;;;;49.03;28.92;;;;;;;4.36;90.11;96498.47;1771546;81;21056;-76
2021/12/06 10:32:36;;;;;;;53.50;29.95;;;;;;;4.44;90.00;96496.09;1740171;81;20988;-75
2021/12/06 10:35:09;;;;;;;54.27;32.13;;;;;;;4.57;89.71;96496.58;1744637;82;21012;-76
2021/12/06 10:37:47;;;;;;;52.93;31.07;;;;;;;4.69;89.74;96498.82;1737242;82;21048;-76
2021/12/06 10:40:22;;;;;;;55.00;31.23;;;;;;;4.79;89.41;96495.48;1751671;80;20961;-76
2021/12/06 10:42:51;;;;;;;49.10;30.20;;;;;;;4.85;89.10;96485.22;1745241;81;20989;-75
2021/12/06 10:45:23;;;;;;;47.98;28.05;;;;;;;4.92;89.48;96492.45;1765911;81;21004;-75
2021/12/06 10:48:29;;;;;;;45.38;27.65;;;;;;;5.06;89.52;96490.73;1764754;81;21012;-75
2021/12/06 10:51:02;;;;;;;43.38;26.85;;;;;;;5.15;89.25;96496.53;1759314;81;21418;-75
2021/12/06 10:53:38;;;;;;;43.02;26.75;;;;;;;5.27;89.25;96495.72;1761936;81;20965;-75
2021/12/06 10:56:14;;;;;;;41.93;26.13;;;;;;;5.49;89.15;96492.41;1725684;82;21008;-76
2021/12/06 10:58:35;;;;;;;35.13;22.10;;;;;;;5.49;89.15;96492.41;1761010;81;21389;-75
2021/12/06 11:01:06;;;;;;;32.10;17.80;;;;;;;5.57;89.09;96490.83;1748118;80;21020;-76
2021/12/06 11:03:40;;;;;;;28.67;17.50;;;;;;;5.61;88.11;96493.77;1757117;80;20976;-76
2021/12/06 11:06:15;;;;;;;30.60;17.87;;;;;;;5.66;88.48;96494.45;1736737;80;21004;-77
2021/12/06 11:08:43;;;;;;;37.78;20.45;;;;;;;5.72;88.49;96498.66;1729044;81;21013;-76
2021/12/06 11:11:26;;;;;;;37.78;21.30;;;;;;;5.73;88.39;96501.69;1763964;81;20997;-77
2021/12/06 11:13:57;;;;;;;37.65;22.17;;;;;;;5.72;88.29;96503.44;1752312;80;21108;-75
2021/12/06 11:16:31;;;;;;;36.20;21.40;;;;;;;5.74;88.19;96500.77;1758746;81;20992;-76
2021/12/06 11:19:05;;;;;;;37.45;22.62;;;;;;;5.69;87.44;96503.53;1758200;81;20937;-76
2021/12/06 11:21:54;;;;;;;32.88;21.25;;;;;;;5.66;86.66;96503.19;1757812;80;21286;-76
2021/12/06 11:24:43;;;;;;;41.35;23.60;;;;;;;5.65;87.08;96495.37;1750359;80;21048;-76
2021/12/06 11:27:22;;;;;;;41.53;24.98;;;;;;;5.66;87.30;96491.36;1758828;80;20993;-76
2021/12/06 11:29:57;;;;;;;39.05;24.75;;;;;;;5.66;87.20;96493.14;1760399;81;21395;-75
2021/12/06 11:32:30;;;;;;;40.70;24.75;;;;;;;5.64;86.98;96501.52;1759903;80;20977;-76
2021/12/06 11:35:06;;;;;;;38.40;23.65;;;;;;;5.52;85.33;96504.13;1743573;81;21001;-75
2021/12/06 11:37:49;;;;;;;39.98;24.23;;;;;;;5.48;86.02;96509.92;1747468;82;21024;-76
2021/12/06 11:40:29;;;;;;;51.02;31.05;;;;;;;5.48;86.40;96504.67;1747452;82;21056;-77
2021/12/06 11:43:07;;;;;;;57.30;32.93;;;;;;;5.34;86.16;96513.02;1750546;82;21414;-76
2021/12/06 11:45:56;;;;;;;65.32;35.20;;;;;;;5.23;86.61;96518.61;1752167;82;20969;-75
2021/12/06 11:48:35;;;;;;;61.37;34.10;;;;;;;5.13;86.79;96521.12;1747468;82;21045;-77